Time;durP1;ratioP1;P1;durP2;ratioP2;P2;SDS_P1;SDS_P2;PMS_P1;PMS_P2;Temp;Humidity;BMP_temperature;BMP_pressure;BME280_temperature;BME280_humidity;BME280_pressure;Samples;Min_cycle;Max_cycle;Signal;HPM_P1;HPM_P2
2021/07/23 00:02:00;;;;;;;0.10;0.10;;;;;;;12.07;86.25;101361.88;5033819;28;19921;-89
2021/07/23 00:04:34;;;;;;;0.73;0.20;;;;;;;12.11;85.80;101356.69;5035340;28;20041;-89
2021/07/23 00:07:02;;;;;;;0.10;0.10;;;;;;;12.06;85.50;101362.97;5044595;28;20037;-89
2021/07/23 00:09:30;;;;;;;0.10;0.10;;;;;;;12.07;85.74;101361.06;5040198;28;20045;-89
2021/07/23 00:11:58;;;;;;;0.20;0.20;;;;;;;12.03;85.92;101360.78;5033619;28;20429;-88
2021/07/23 00:14:36;;;;;;;0.20;0.20;;;;;;;11.79;86.20;101335.09;5033779;28;20049;-89
2021/07/23 00:17:11;;;;;;;0.10;0.10;;;;;;;11.98;85.79;101359.97;5033962;28;20417;-89
2021/07/23 00:19:39;;;;;;;0.10;0.10;;;;;;;11.90;86.75;101359.41;5045615;28;20045;-90
2021/07/23 00:22:07;;;;;;;0.10;0.10;;;;;;;11.88;86.20;101350.66;5038458;28;20052;-89
2021/07/23 00:24:40;;;;;;;0.10;0.10;;;;;;;11.98;85.69;101359.97;5042045;28;20046;-89
2021/07/23 00:27:15;;;;;;;0.20;0.20;;;;;;;11.86;86.60;101352.00;5033152;28;20056;-88
2021/07/23 00:29:50;;;;;;;0.10;0.10;;;;;;;11.86;86.15;101354.75;5046158;28;20068;-83
2021/07/23 00:32:19;;;;;;;0.20;0.20;;;;;;;11.87;86.80;101357.19;5034916;28;20053;-84
2021/07/23 00:34:48;;;;;;;0.20;0.20;;;;;;;11.79;86.53;101346.00;5033398;28;20073;-84
2021/07/23 00:37:21;;;;;;;0.13;0.13;;;;;;;11.76;86.62;101355.56;5033641;28;20391;-84
2021/07/23 00:39:54;;;;;;;0.10;0.10;;;;;;;11.75;86.41;101356.63;5034946;28;20048;-84
2021/07/23 00:43:17;;;;;;;0.10;0.10;;;;;;;11.72;86.96;101355.28;5032711;28;20052;-84
2021/07/23 00:45:51;;;;;;;0.10;0.10;;;;;;;11.70;86.84;101356.66;5033193;28;20053;-84
2021/07/23 00:48:27;;;;;;;0.20;0.20;;;;;;;11.64;87.20;101346.81;5033266;28;20060;-83
2021/07/23 00:51:01;;;;;;;0.20;0.20;;;;;;;11.56;87.23;101348.97;5033044;28;20553;-85
2021/07/23 00:53:30;;;;;;;0.20;0.20;;;;;;;11.58;87.66;101346.00;5032538;28;20049;-84
2021/07/23 00:56:04;;;;;;;0.20;0.20;;;;;;;11.61;87.49;101352.81;5047941;28;20045;-83
2021/07/23 00:58:38;;;;;;;0.10;0.10;;;;;;;11.64;87.27;101352.25;5052889;28;20061;-85
2021/07/23 01:01:11;;;;;;;0.20;0.20;;;;;;;11.55;87.35;101343.81;5052831;28;20738;-85
2021/07/23 01:03:43;;;;;;;0.15;0.15;;;;;;;11.56;87.69;101353.63;5038340;28;20045;-83
2021/07/23 01:06:16;;;;;;;0.20;0.20;;;;;;;11.58;87.97;101346.00;5032633;28;20068;-83
2021/07/23 01:08:49;;;;;;;0.20;0.20;;;;;;;11.64;87.19;101342.19;5032235;28;20664;-83
2021/07/23 01:11:20;;;;;;;0.10;0.10;;;;;;;11.69;87.80;101344.09;5032070;28;20057;-83
2021/07/23 01:15:01;;;;;;;0.10;0.10;;;;;;;11.67;88.01;101347.09;5034876;28;20405;-86
2021/07/23 01:18:00;;;;;;;0.13;0.13;;;;;;;11.73;87.35;101340.53;5042619;28;20406;-83
2021/07/23 01:20:34;;;;;;;0.10;0.10;;;;;;;11.70;87.58;101340.28;5034630;28;20387;-84
2021/07/23 01:23:04;;;;;;;0.10;0.10;;;;;;;11.71;87.21;101347.34;5048430;28;20071;-85
2021/07/23 01:25:36;;;;;;;0.10;0.10;;;;;;;11.67;87.89;101343.53;5032711;28;20045;-83
2021/07/23 01:28:05;;;;;;;0.20;0.20;;;;;;;11.59;87.98;101353.09;5032290;28;20049;-84
2021/07/23 01:31:10;;;;;;;0.20;0.20;;;;;;;11.74;87.22;101346.84;5032383;28;20056;-83
2021/07/23 01:33:40;;;;;;;0.10;0.10;;;;;;;11.50;87.93;101317.38;5032196;28;20045;-83
2021/07/23 01:40:39;;;;;;;0.10;0.10;;;;;;;11.58;88.16;101344.06;5040180;28;20056;-83
2021/07/23 01:43:08;;;;;;;0.17;0.17;;;;;;;11.50;87.79;101333.72;5031672;28;20486;-84
2021/07/23 01:50:07;;;;;;;0.20;0.20;;;;;;;11.71;87.75;101333.72;5060155;28;20044;-84
2021/07/23 01:53:08;;;;;;;0.10;0.10;;;;;;;11.72;88.02;101329.91;5048239;28;20540;-83
2021/07/23 01:55:52;;;;;;;0.10;0.10;;;;;;;11.79;87.64;101333.19;5032014;28;20054;-83
2021/07/23 01:58:20;;;;;;;0.10;0.10;;;;;;;11.84;87.88;101329.66;5031832;28;20056;-83
2021/07/23 02:01:23;;;;;;;0.10;0.10;;;;;;;11.95;87.31;101325.88;5032273;28;20395;-83
2021/07/23 02:04:12;;;;;;;0.20;0.20;;;;;;;11.97;88.12;101326.41;5037595;28;20053;-84
2021/07/23 02:06:47;;;;;;;0.13;0.13;;;;;;;12.04;86.76;101328.84;5037363;28;20053;-83
2021/07/23 02:10:08;;;;;;;0.10;0.10;;;;;;;12.05;87.88;101319.59;5048252;28;20045;-84
2021/07/23 02:12:43;;;;;;;0.10;0.10;;;;;;;11.88;87.36;101285.19;5031613;28;20058;-84
2021/07/23 02:15:23;;;;;;;0.17;0.17;;;;;;;12.05;87.31;101312.22;5031901;28;20041;-83
2021/07/23 02:17:56;;;;;;;0.10;0.10;;;;;;;12.14;87.68;101308.94;5038489;28;20045;-84
2021/07/23 02:20:28;;;;;;;0.10;0.10;;;;;;;12.01;87.94;101289.28;5051528;28;20053;-84
2021/07/23 02:23:03;;;;;;;0.20;0.20;;;;;;;12.25;87.83;101319.56;5048192;28;20041;-85
2021/07/23 02:25:42;;;;;;;0.10;0.10;;;;;;;12.28;87.45;101322.81;5031648;28;20050;-84
2021/07/23 02:28:23;;;;;;;0.10;0.10;;;;;;;12.18;87.92;101293.63;5031566;28;20053;-83
2021/07/23 02:30:58;;;;;;;0.10;0.10;;;;;;;12.26;86.92;101306.72;5031526;28;20053;-83
2021/07/23 02:33:35;;;;;;;0.10;0.10;;;;;;;12.34;88.03;101317.09;5031171;28;20426;-85
2021/07/23 02:36:22;;;;;;;0.20;0.20;;;;;;;12.35;86.59;101309.72;5030019;28;20057;-84
2021/07/23 02:38:56;;;;;;;0.10;0.10;;;;;;;12.29;87.98;101319.84;5031783;28;20413;-83
2021/07/23 02:41:25;;;;;;;0.20;0.20;;;;;;;12.23;87.38;101299.91;5031717;28;20056;-85
2021/07/23 02:43:59;;;;;;;0.10;0.10;;;;;;;12.32;88.10;101308.38;5045406;28;20490;-84
2021/07/23 02:46:29;;;;;;;0.20;0.20;;;;;;;12.35;87.33;101307.81;5036676;28;20050;-84
2021/07/23 02:49:03;;;;;;;0.20;0.20;;;;;;;12.29;87.15;101289.81;5032164;28;20448;-83
2021/07/23 02:51:59;;;;;;;0.20;0.20;;;;;;;12.42;88.07;101297.41;5049087;28;20060;-83
2021/07/23 02:54:28;;;;;;;0.20;0.20;;;;;;;12.47;87.82;101302.06;5035490;28;20045;-84
2021/07/23 02:57:02;;;;;;;0.20;0.20;;;;;;;12.50;88.38;101306.16;5037987;28;20042;-84
2021/07/23 02:59:42;;;;;;;0.10;0.10;;;;;;;12.49;88.85;101305.31;5044438;28;20046;-83
2021/07/23 03:02:17;;;;;;;0.10;0.10;;;;;;;12.51;88.75;101302.31;5053800;28;20501;-83
2021/07/23 03:05:55;;;;;;;0.40;0.10;;;;;;;12.56;88.14;101307.75;5036633;28;20046;-84
2021/07/23 03:08:31;;;;;;;0.10;0.10;;;;;;;12.57;88.89;101304.75;5049665;28;20068;-84
2021/07/23 03:11:05;;;;;;;0.13;0.13;;;;;;;12.53;88.57;101300.13;5050201;28;20049;-84
2021/07/23 03:14:03;;;;;;;0.20;0.20;;;;;;;12.57;88.35;101293.03;5053377;28;20052;-84
2021/07/23 03:16:38;;;;;;;0.10;0.10;;;;;;;12.51;87.86;101296.84;5040157;28;20049;-85
2021/07/23 03:19:07;;;;;;;0.10;0.10;;;;;;;12.49;88.23;101301.78;5034521;28;20045;-84
2021/07/23 03:21:45;;;;;;;0.10;0.10;;;;;;;12.41;88.50;101298.53;5033983;28;20060;-85
2021/07/23 03:24:29;;;;;;;0.10;0.10;;;;;;;12.46;88.40;101305.06;5051547;28;20046;-84
2021/07/23 03:26:59;;;;;;;0.10;0.10;;;;;;;12.39;88.13;101291.72;5035446;28;20049;-83
2021/07/23 03:29:41;;;;;;;0.10;0.10;;;;;;;12.42;89.07;101297.41;5033827;28;20054;-84
2021/07/23 03:32:16;;;;;;;0.20;0.20;;;;;;;12.23;89.23;101269.88;5046703;28;20061;-84
2021/07/23 03:34:50;;;;;;;0.20;0.20;;;;;;;12.41;88.69;101290.34;5035768;28;20140;-84
2021/07/23 03:46:10;;;;;;;0.20;0.20;;;;;;;12.27;89.26;101277.53;5035281;28;20056;-84
2021/07/23 03:48:46;;;;;;;0.10;0.10;;;;;;;12.28;89.11;101280.00;5035693;28;20041;-84
2021/07/23 03:52:22;;;;;;;0.20;0.20;;;;;;;12.32;89.21;101289.25;5033990;28;20049;-84
2021/07/23 03:55:16;;;;;;;0.20;0.20;;;;;;;12.33;89.30;101292.81;5046228;28;20505;-84
2021/07/23 03:57:53;;;;;;;0.17;0.17;;;;;;;12.35;89.21;101291.44;5045795;28;20420;-84
2021/07/23 04:00:27;;;;;;;0.10;0.10;;;;;;;12.39;89.10;101288.97;5055860;28;20057;-83
2021/07/23 04:02:58;;;;;;;0.15;0.15;;;;;;;12.39;89.79;101273.41;5052641;28;20131;-85
2021/07/23 04:05:33;;;;;;;0.10;0.10;;;;;;;12.47;89.19;101291.13;5033871;28;20048;-84
2021/07/23 04:08:32;;;;;;;0.20;0.20;;;;;;;12.41;89.73;101294.97;5034282;28;20056;-84
2021/07/23 04:11:05;;;;;;;0.20;0.20;;;;;;;12.47;88.52;101296.59;5035516;28;20049;-84
2021/07/23 04:13:40;;;;;;;0.20;0.20;;;;;;;12.50;89.30;101300.69;5034062;28;20605;-83
2021/07/23 04:16:08;;;;;;;0.10;0.10;;;;;;;12.54;88.91;101294.38;5033448;28;20057;-84
2021/07/23 04:18:43;;;;;;;0.20;0.20;;;;;;;12.54;89.29;101297.13;5038025;28;20050;-83
2021/07/23 04:21:28;;;;;;;0.20;0.20;;;;;;;12.55;89.51;101298.75;5033644;28;20064;-83
2021/07/23 04:24:11;;;;;;;0.10;0.10;;;;;;;12.52;89.08;101293.03;5042032;28;20073;-84
2021/07/23 04:26:45;;;;;;;0.10;0.10;;;;;;;12.44;90.22;101288.13;5044829;28;20409;-84
2021/07/23 04:29:18;;;;;;;0.20;0.20;;;;;;;12.61;88.71;101298.72;5047062;28;20053;-85
2021/07/23 04:31:52;;;;;;;0.20;0.20;;;;;;;12.55;89.54;101293.31;5032954;28;20053;-83
2021/07/23 04:35:18;;;;;;;0.10;0.10;;;;;;;12.54;89.48;101302.56;5044963;28;20880;-84
2021/07/23 04:37:53;;;;;;;0.10;0.10;;;;;;;12.52;89.87;101295.75;5038975;28;20060;-84
2021/07/23 04:40:44;;;;;;;0.10;0.10;;;;;;;12.50;90.69;101296.03;5046955;28;20785;-84
2021/07/23 04:43:35;;;;;;;0.10;0.10;;;;;;;12.58;89.98;101294.63;5040536;28;20517;-85
2021/07/23 04:46:08;;;;;;;0.10;0.10;;;;;;;12.47;90.79;101288.41;5046369;28;20045;-84
2021/07/23 04:48:42;;;;;;;0.20;0.20;;;;;;;12.44;91.54;101277.22;5037980;28;20049;-84
2021/07/23 04:51:36;;;;;;;0.20;0.20;;;;;;;12.41;90.92;101281.31;5038192;28;20077;-84
2021/07/23 04:54:28;;;;;;;0.20;0.20;;;;;;;12.58;90.85;101297.38;5045526;28;20063;-83
2021/07/23 04:57:18;;;;;;;0.10;0.10;;;;;;;12.63;90.98;101300.09;5034417;28;20045;-84
2021/07/23 05:00:04;;;;;;;0.20;0.20;;;;;;;12.70;90.51;101299.78;5045261;28;20059;-83
2021/07/23 05:02:40;;;;;;;0.20;0.20;;;;;;;12.68;90.74;101288.34;5041814;28;20049;-83
2021/07/23 05:05:14;;;;;;;0.20;0.20;;;;;;;12.68;91.25;101296.53;5038765;28;20052;-83
2021/07/23 05:07:47;;;;;;;0.10;0.10;;;;;;;12.68;91.77;101296.53;5053820;28;20407;-84
2021/07/23 05:10:42;;;;;;;0.10;0.10;;;;;;;12.77;91.67;101289.38;5047653;28;20049;-83
2021/07/23 05:13:17;;;;;;;0.10;0.10;;;;;;;12.78;91.61;101299.22;5051302;28;20053;-83
2021/07/23 05:15:50;;;;;;;0.20;0.20;;;;;;;12.86;91.87;101303.28;5049448;28;20064;-84
2021/07/23 05:18:24;;;;;;;0.13;0.13;;;;;;;12.88;90.90;101304.63;5047177;28;20056;-84
2021/07/23 05:20:57;;;;;;;0.10;0.10;;;;;;;12.91;91.29;101298.63;5046794;28;20053;-85
2021/07/23 05:24:03;;;;;;;0.10;0.10;;;;;;;12.99;91.06;101301.84;5032243;28;20056;-84
2021/07/23 05:26:39;;;;;;;0.20;0.20;;;;;;;13.02;91.23;101298.56;5035403;28;20048;-83
2021/07/23 05:29:08;;;;;;;0.20;0.20;;;;;;;12.92;91.80;101278.38;5033249;28;20049;-84
2021/07/23 05:31:42;;;;;;;0.10;0.10;;;;;;;13.15;91.77;101297.94;5032007;28;20041;-83
2021/07/23 05:34:10;;;;;;;0.20;0.20;;;;;;;13.10;91.15;101306.16;5033618;28;20049;-85
2021/07/23 05:36:38;;;;;;;0.10;0.10;;;;;;;13.18;90.98;101304.78;5032798;28;20045;-83
2021/07/23 05:39:08;;;;;;;0.10;0.10;;;;;;;13.25;91.66;101294.34;5047289;28;20056;-83
2021/07/23 05:41:42;;;;;;;0.10;0.10;;;;;;;13.27;90.36;101292.97;5031976;28;20501;-84
2021/07/23 05:44:10;;;;;;;0.10;0.10;;;;;;;13.31;90.91;101295.13;5046385;28;20049;-85
2021/07/23 05:46:44;;;;;;;0.10;0.10;;;;;;;13.30;91.07;101302.50;5048039;28;20037;-83
2021/07/23 05:49:36;;;;;;;0.10;0.10;;;;;;;13.36;91.94;101300.59;5052075;28;20063;-83
2021/07/23 05:52:09;;;;;;;0.10;0.10;;;;;;;13.44;90.98;101295.31;5043895;28;20065;-83
2021/07/23 05:54:56;;;;;;;0.10;0.10;;;;;;;13.41;91.07;101289.63;5041312;28;20045;-84
2021/07/23 05:57:30;;;;;;;0.20;0.20;;;;;;;13.52;91.43;101299.38;5040124;28;20049;-83
2021/07/23 06:00:06;;;;;;;0.10;0.10;;;;;;;13.55;90.87;101304.28;5045465;28;20052;-85
2021/07/23 06:02:39;;;;;;;0.10;0.10;;;;;;;13.73;90.54;101300.03;5041071;28;20053;-84
2021/07/23 06:05:27;;;;;;;0.10;0.10;;;;;;;13.67;90.31;101286.69;5035996;28;20060;-86
2021/07/23 06:07:55;;;;;;;0.17;0.17;;;;;;;13.74;90.12;101293.47;5043307;28;20061;-84
2021/07/23 06:10:28;;;;;;;0.10;0.10;;;;;;;13.63;89.72;101285.63;5046357;28;20056;-83
2021/07/23 06:13:03;;;;;;;0.10;0.10;;;;;;;13.72;90.41;101289.38;5039365;28;20049;-84
2021/07/23 06:15:57;;;;;;;0.20;0.20;;;;;;;13.78;90.03;101290.97;5041911;28;20620;-85
2021/07/23 06:18:30;;;;;;;0.13;0.13;;;;;;;13.91;90.95;101292.25;5050389;28;20049;-84
2021/07/23 06:20:58;;;;;;;0.10;0.10;;;;;;;14.04;89.99;101290.75;5058831;28;20056;-84
2021/07/23 06:27:56;;;;;;;0.10;0.10;;;;;;;14.22;88.79;101290.00;5040952;28;20045;-84
2021/07/23 06:30:31;;;;;;;0.20;0.20;;;;;;;14.29;88.96;101287.75;5042768;28;20068;-84
2021/07/23 06:37:05;;;;;;;0.10;0.10;;;;;;;15.18;86.03;101290.25;5038422;28;20060;-83
2021/07/23 06:39:38;;;;;;;0.10;0.10;;;;;;;15.01;83.57;101261.44;5037258;28;20410;-84
2021/07/23 06:46:26;;;;;;;0.10;0.10;;;;;;;15.21;83.47;101289.69;5034514;28;20046;-83
2021/07/23 06:49:04;;;;;;;0.20;0.20;;;;;;;15.38;82.95;101289.16;5051558;28;20053;-84
2021/07/23 06:51:33;;;;;;;0.20;0.20;;;;;;;15.49;82.21;101287.88;5052142;28;20505;-84
2021/07/23 06:54:06;;;;;;;0.20;0.20;;;;;;;15.35;80.07;101285.06;5036065;28;20053;-85
2021/07/23 06:56:44;;;;;;;0.20;0.20;;;;;;;15.53;81.18;101296.34;5037822;28;20064;-84
2021/07/23 06:59:13;;;;;;;0.20;0.20;;;;;;;15.62;80.75;101270.66;5046176;28;20060;-84
2021/07/23 07:01:50;;;;;;;0.13;0.13;;;;;;;15.43;80.03;101289.88;5041581;28;20057;-85
2021/07/23 07:08:02;;;;;;;0.10;0.10;;;;;;;15.56;80.42;101290.25;5040380;28;20041;-84
2021/07/23 07:10:39;;;;;;;0.10;0.10;;;;;;;15.64;81.48;101284.88;5048934;28;20247;-89
2021/07/23 07:13:19;;;;;;;0.10;0.10;;;;;;;15.70;80.62;101287.53;5047928;28;20060;-83
2021/07/23 07:15:47;;;;;;;0.10;0.10;;;;;;;15.93;78.03;101286.63;5031891;28;20049;-90
2021/07/23 07:18:17;;;;;;;0.10;0.10;;;;;;;16.01;77.98;101292.56;5036801;28;20041;-83
2021/07/23 07:20:50;;;;;;;0.10;0.10;;;;;;;16.02;77.22;101289.50;5036496;28;20490;-82
2021/07/23 07:23:18;;;;;;;0.10;0.10;;;;;;;16.47;76.38;101273.28;5038867;28;20057;-82
2021/07/23 07:26:47;;;;;;;0.10;0.10;;;;;;;16.40;76.50;101283.03;5031403;28;20061;-83
2021/07/23 07:29:22;;;;;;;0.20;0.20;;;;;;;16.39;75.42;101279.50;5032637;28;20045;-82
2021/07/23 07:32:00;;;;;;;0.10;0.10;;;;;;;16.24;75.06;101291.59;5037780;28;20065;-83
2021/07/23 07:34:34;;;;;;;0.10;0.10;;;;;;;16.37;75.81;101278.97;5030037;28;20056;-83
2021/07/23 07:37:09;;;;;;;0.10;0.10;;;;;;;15.98;73.56;101281.06;5033338;28;20052;-82
2021/07/23 07:39:38;;;;;;;0.10;0.10;;;;;;;15.73;74.77;101260.34;5036259;28;20777;-83
2021/07/23 07:42:07;;;;;;;0.10;0.10;;;;;;;16.03;76.69;101290.31;5033086;28;20093;-82
2021/07/23 07:44:48;;;;;;;0.10;0.10;;;;;;;15.95;74.76;101286.31;5035451;28;20068;-82
2021/07/23 07:47:37;;;;;;;0.10;0.10;;;;;;;16.10;75.56;101286.06;5034233;28;20041;-84
2021/07/23 07:50:41;;;;;;;0.13;0.13;;;;;;;15.83;76.06;101292.31;5033894;28;20041;-83
2021/07/23 07:53:16;;;;;;;0.10;0.10;;;;;;;16.04;76.25;101289.22;5035611;28;20614;-84
2021/07/23 07:55:49;;;;;;;0.10;0.10;;;;;;;16.10;75.21;101291.56;5033303;28;20057;-85
2021/07/23 07:58:23;;;;;;;0.10;0.10;;;;;;;16.03;75.40;101290.31;5036052;28;20074;-82
2021/07/23 08:00:56;;;;;;;0.20;0.20;;;;;;;16.35;74.00;101258.41;5033935;28;20060;-84
2021/07/23 08:03:29;;;;;;;0.10;0.10;;;;;;;16.64;71.94;101283.66;5041097;28;20382;-84
2021/07/23 08:06:18;;;;;;;0.20;0.17;;;;;;;16.49;72.28;101279.28;5031601;28;20053;-82
2021/07/23 08:09:08;;;;;;;0.10;0.10;;;;;;;16.62;73.10;101279.59;5040609;28;20066;-84
2021/07/23 08:11:42;;;;;;;0.10;0.10;;;;;;;16.63;73.47;101276.53;5033747;28;20057;-82
2021/07/23 08:14:17;;;;;;;0.10;0.10;;;;;;;16.80;72.81;101284.13;5043325;28;20406;-83
2021/07/23 08:16:57;;;;;;;0.10;0.10;;;;;;;16.75;73.69;101251.28;5036067;28;20425;-90
2021/07/23 08:19:25;;;;;;;0.13;0.13;;;;;;;16.86;73.72;101284.03;5038912;28;20048;-82
2021/07/23 08:22:04;;;;;;;0.10;0.10;;;;;;;16.73;71.85;101281.00;5037481;28;20601;-83
2021/07/23 08:25:17;;;;;;;0.10;0.10;;;;;;;17.14;70.32;101277.38;5047924;28;20045;-82
2021/07/23 08:27:46;;;;;;;0.13;0.13;;;;;;;16.69;70.50;101233.25;5038130;28;20056;-83
2021/07/23 08:30:15;;;;;;;0.10;0.10;;;;;;;17.10;73.47;101267.31;5045225;28;20056;-83
2021/07/23 08:32:44;;;;;;;0.10;0.10;;;;;;;17.37;71.78;101273.84;5040689;28;20045;-83
2021/07/23 08:35:17;;;;;;;0.10;0.10;;;;;;;17.48;71.44;101275.22;5040485;28;20079;-84
2021/07/23 08:37:52;;;;;;;0.10;0.10;;;;;;;17.66;70.02;101277.00;5036652;28;20049;-83
2021/07/23 08:40:21;;;;;;;0.10;0.10;;;;;;;17.16;69.86;101266.06;5038521;28;20048;-83
2021/07/23 08:43:09;;;;;;;0.10;0.10;;;;;;;16.88;70.66;101271.63;5036227;28;20053;-83
2021/07/23 08:45:43;;;;;;;0.10;0.10;;;;;;;16.96;70.07;101262.66;5039984;28;20037;-83
2021/07/23 08:48:16;;;;;;;0.10;0.10;;;;;;;17.18;69.80;101274.84;5038647;28;20049;-83
2021/07/23 08:50:49;;;;;;;0.10;0.10;;;;;;;17.31;69.83;101278.66;5050290;28;20045;-83
2021/07/23 08:53:19;;;;;;;0.10;0.10;;;;;;;17.20;68.48;101264.34;5044749;28;20683;-82
2021/07/23 08:55:47;;;;;;;0.10;0.10;;;;;;;17.07;70.98;101268.75;5051400;28;20049;-82
2021/07/23 08:58:36;;;;;;;0.10;0.10;;;;;;;17.06;69.19;101267.13;5037445;28;20049;-82
2021/07/23 09:01:09;;;;;;;0.10;0.10;;;;;;;17.25;68.49;101257.88;5032554;28;20374;-83
2021/07/23 09:03:45;;;;;;;0.10;0.10;;;;;;;16.91;69.43;101264.72;5034828;28;20403;-83
2021/07/23 09:06:17;;;;;;;0.10;0.10;;;;;;;17.03;70.19;101265.00;5033865;28;20050;-83
2021/07/23 09:08:48;;;;;;;0.10;0.10;;;;;;;17.38;72.03;101276.28;5045656;28;20046;-82
2021/07/23 09:11:24;;;;;;;0.10;0.10;;;;;;;17.59;69.71;101262.84;5032802;28;20057;-82
2021/07/23 09:14:56;;;;;;;0.10;0.10;;;;;;;17.49;70.88;101274.13;5043135;28;20056;-83
2021/07/23 09:17:41;;;;;;;0.10;0.10;;;;;;;17.21;69.03;101241.22;5048467;28;20060;-84
2021/07/23 09:20:10;;;;;;;0.10;0.10;;;;;;;17.65;69.69;101275.38;5042073;28;20057;-82
2021/07/23 09:23:34;;;;;;;0.10;0.10;;;;;;;17.74;68.19;101274.59;5033286;28;20056;-84
2021/07/23 09:26:17;;;;;;;0.10;0.10;;;;;;;17.57;68.70;101273.38;5048691;28;20538;-83
2021/07/23 09:28:56;;;;;;;0.10;0.10;;;;;;;17.92;69.34;101264.53;5039597;28;20049;-82
2021/07/23 09:31:31;;;;;;;0.13;0.13;;;;;;;17.72;67.47;101261.16;5034583;28;20734;-83
2021/07/23 09:34:00;;;;;;;0.10;0.10;;;;;;;17.72;66.40;101258.41;5047315;28;20063;-83
2021/07/23 09:36:34;;;;;;;0.20;0.20;;;;;;;18.02;67.21;101259.59;5037086;28;20498;-83
2021/07/23 09:39:06;;;;;;;0.20;0.20;;;;;;;18.13;67.60;101260.13;5033481;28;20060;-83
2021/07/23 09:41:39;;;;;;;0.10;0.10;;;;;;;18.02;66.72;101261.50;5052189;28;20448;-82
2021/07/23 09:44:18;;;;;;;0.10;0.10;;;;;;;18.23;66.18;101258.19;5042254;28;20417;-82
2021/07/23 09:46:47;;;;;;;0.20;0.20;;;;;;;18.25;65.82;101228.41;5045271;28;20489;-82
2021/07/23 09:49:22;;;;;;;0.15;0.15;;;;;;;18.64;67.06;101246.84;5040217;28;20041;-83
2021/07/23 09:52:02;;;;;;;0.10;0.10;;;;;;;18.70;61.98;101240.03;5046793;28;20053;-82
2021/07/23 09:54:30;;;;;;;0.10;0.10;;;;;;;18.44;63.22;101245.47;5049744;28;20056;-83
2021/07/23 09:57:11;;;;;;;0.10;0.10;;;;;;;18.06;64.44;101234.16;5047458;28;20053;-82
2021/07/23 10:00:02;;;;;;;0.20;0.20;;;;;;;18.65;62.67;101253.16;5033768;28;20414;-82
2021/07/23 10:02:44;;;;;;;0.10;0.10;;;;;;;18.48;66.57;101237.41;5039181;28;20053;-82
2021/07/23 10:05:34;;;;;;;0.10;0.10;;;;;;;18.83;65.07;101235.50;5045479;28;20052;-82
2021/07/23 10:08:31;;;;;;;0.10;0.10;;;;;;;19.15;61.69;101243.69;5034518;28;20053;-84
2021/07/23 10:11:06;;;;;;;0.10;0.10;;;;;;;19.07;60.95;101228.75;5039616;28;20401;-82
2021/07/23 10:13:40;;;;;;;0.10;0.10;;;;;;;18.74;60.98;101250.41;5043025;28;20045;-83
2021/07/23 10:16:15;;;;;;;0.10;0.10;;;;;;;18.70;62.72;101239.25;5044168;28;20144;-84
2021/07/23 10:18:44;;;;;;;0.10;0.10;;;;;;;18.32;62.39;101218.53;5040565;28;20050;-83
2021/07/23 10:21:20;;;;;;;0.15;0.15;;;;;;;18.44;61.84;101233.66;5030710;28;20409;-86
2021/07/23 10:23:54;;;;;;;0.10;0.10;;;;;;;18.11;63.18;101237.56;5031311;28;20057;-85
2021/07/23 10:26:32;;;;;;;0.10;0.10;;;;;;;18.13;65.56;101210.53;5034821;28;20033;-84
2021/07/23 10:29:03;;;;;;;0.10;0.10;;;;;;;18.56;63.70;101213.72;5032625;28;20049;-84
2021/07/23 10:31:48;;;;;;;0.10;0.10;;;;;;;18.51;65.27;101223.78;5045672;28;20182;-84
2021/07/23 10:34:32;;;;;;;0.10;0.10;;;;;;;18.59;63.88;101240.66;5030155;28;21411;-85
2021/07/23 10:37:01;;;;;;;0.10;0.10;;;;;;;18.42;64.66;101227.63;5035052;28;20057;-85
2021/07/23 10:39:34;;;;;;;0.20;0.20;;;;;;;18.68;62.46;101200.13;5034047;28;20057;-83
2021/07/23 10:42:36;;;;;;;0.10;0.10;;;;;;;18.50;62.81;101224.91;5032683;28;20057;-84
2021/07/23 10:45:07;;;;;;;0.10;0.10;;;;;;;18.50;62.77;101224.91;5030708;28;20049;-85
2021/07/23 10:47:42;;;;;;;0.10;0.10;;;;;;;18.74;65.79;101223.69;5031194;28;20060;-83
2021/07/23 10:50:49;;;;;;;0.10;0.10;;;;;;;18.74;62.33;101225.59;5028157;28;20307;-84
2021/07/23 10:53:36;;;;;;;0.10;0.10;;;;;;;19.07;62.19;101225.19;5030037;28;20068;-82
2021/07/23 10:56:46;;;;;;;0.10;0.10;;;;;;;19.16;62.07;101218.53;5026292;28;20053;-82
2021/07/23 10:59:47;;;;;;;0.08;0.08;;;;;;;19.13;62.88;101215.63;5026623;28;20076;-85
2021/07/23 11:02:47;;;;;;;0.10;0.10;;;;;;;19.29;61.14;101224.19;5032809;28;20423;-84
2021/07/23 11:05:21;;;;;;;0.10;0.10;;;;;;;19.30;61.44;101214.78;5028651;28;20057;-85
2021/07/23 11:07:55;;;;;;;0.10;0.10;;;;;;;19.07;61.92;101197.59;5028269;28;20057;-84
2021/07/23 11:13:12;;;;;;;0.10;0.10;;;;;;;19.15;61.21;101203.09;5031332;28;20057;-83
2021/07/23 11:15:41;;;;;;;0.10;0.10;;;;;;;19.19;63.21;101192.22;5034195;28;20061;-83
2021/07/23 11:18:16;;;;;;;0.10;0.10;;;;;;;18.90;60.78;101207.47;5028725;28;20057;-84
2021/07/23 11:20:45;;;;;;;0.10;0.10;;;;;;;19.11;61.44;101213.19;5030765;28;20060;-84
2021/07/23 11:23:15;;;;;;;0.10;0.10;;;;;;;19.36;62.06;101216.22;5028021;28;20058;-83
2021/07/23 11:25:53;;;;;;;0.10;0.10;;;;;;;19.30;61.15;101215.59;5031409;28;20065;-84
2021/07/23 11:28:49;;;;;;;0.10;0.10;;;;;;;19.31;61.66;101210.91;5047494;28;20060;-86
2021/07/23 11:31:31;;;;;;;0.10;0.10;;;;;;;19.49;62.63;101214.44;5029636;28;20048;-86
2021/07/23 11:34:22;;;;;;;0.10;0.10;;;;;;;19.50;60.03;101208.59;5031837;28;20053;-85
2021/07/23 11:36:56;;;;;;;0.10;0.10;;;;;;;19.25;61.32;101184.59;5031922;28;20061;-83
2021/07/23 11:39:29;;;;;;;0.10;0.10;;;;;;;19.37;60.61;101212.34;5030455;28;20068;-85
2021/07/23 11:41:58;;;;;;;0.20;0.20;;;;;;;19.39;59.89;101204.56;5030006;28;20061;-85
2021/07/23 11:44:32;;;;;;;0.10;0.10;;;;;;;19.38;60.97;101194.66;5032977;28;20037;-84
2021/07/23 11:47:05;;;;;;;0.10;0.10;;;;;;;19.42;61.02;101192.06;5043049;28;20060;-84
2021/07/23 11:49:39;;;;;;;0.10;0.10;;;;;;;19.84;60.72;101198.59;5030418;28;20053;-85
2021/07/23 11:52:20;;;;;;;0.10;0.10;;;;;;;19.77;58.35;101194.72;5031207;28;20072;-83
2021/07/23 11:54:59;;;;;;;0.10;0.10;;;;;;;19.68;59.76;101192.78;5038222;28;20048;-85
2021/07/23 11:57:43;;;;;;;0.10;0.10;;;;;;;19.58;58.56;101189.56;5032264;28;20060;-84
2021/07/23 12:00:46;;;;;;;0.08;0.08;;;;;;;19.42;60.06;101201.13;5034556;28;20061;-84
2021/07/23 12:03:21;;;;;;;0.10;0.10;;;;;;;19.33;60.90;101194.81;5031441;28;20061;-83
2021/07/23 12:06:08;;;;;;;0.10;0.10;;;;;;;19.11;61.75;101198.56;5030355;28;20067;-84
2021/07/23 12:08:53;;;;;;;;;;;;;;;19.14;63.53;101189.63;5029176;28;20600;-82
2021/07/23 12:11:31;;;;;;;0.13;0.10;;;;;;;19.17;60.54;101195.31;5030142;28;19925;-84
2021/07/23 12:14:25;;;;;;;0.10;0.10;;;;;;;18.98;61.10;101181.84;5030298;28;20049;-83
2021/07/23 12:17:01;;;;;;;0.10;0.10;;;;;;;18.90;61.80;101185.41;5033358;28;20045;-83
2021/07/23 12:19:38;;;;;;;0.10;0.10;;;;;;;19.12;62.19;101186.41;5030445;28;20053;-83
2021/07/23 12:22:14;;;;;;;0.10;0.10;;;;;;;19.17;59.53;101180.72;5034610;28;20505;-84
2021/07/23 12:24:50;;;;;;;0.10;0.10;;;;;;;19.31;59.99;101180.53;5031819;28;20056;-84
2021/07/23 12:27:29;;;;;;;0.10;0.10;;;;;;;19.28;60.99;101179.25;5030515;28;20053;-83
2021/07/23 12:30:07;;;;;;;0.10;0.10;;;;;;;19.49;58.19;101179.34;5034931;28;20061;-82
2021/07/23 12:33:11;;;;;;;0.10;0.10;;;;;;;19.36;61.11;101183.09;5031726;28;20786;-83
2021/07/23 12:35:46;;;;;;;0.10;0.10;;;;;;;19.56;60.50;101180.81;5036713;28;20057;-84
2021/07/23 12:38:16;;;;;;;0.10;0.10;;;;;;;19.41;59.49;101179.38;5030924;28;20057;-85
2021/07/23 12:40:59;;;;;;;0.10;0.10;;;;;;;19.49;58.56;101170.28;5030178;28;20822;-86
2021/07/23 12:43:27;;;;;;;0.10;0.10;;;;;;;19.41;59.70;101173.88;5029660;28;20064;-84
2021/07/23 12:46:10;;;;;;;0.10;0.10;;;;;;;19.70;60.20;101165.66;5033415;28;20699;-83
2021/07/23 12:48:43;;;;;;;0.10;0.10;;;;;;;19.95;58.85;101168.66;5034741;28;20064;-84
2021/07/23 12:51:44;;;;;;;0.10;0.10;;;;;;;20.21;57.51;101174.06;5034742;28;20061;-84
2021/07/23 12:54:15;;;;;;;0.10;0.10;;;;;;;20.61;57.28;101153.50;5033062;28;20064;-82
2021/07/23 12:56:45;;;;;;;0.10;0.10;;;;;;;20.72;57.89;101165.00;5032837;28;20064;-83